createdAt,value
2017-06-11T00:00:31.964Z,99.99
2017-06-11T00:01:31.952Z,99.99
2017-06-11T00:02:31.939Z,99.99
2017-06-11T00:03:31.923Z,99.99
2017-06-11T00:04:31.915Z,99.99
2017-06-11T00:05:31.901Z,99.99
2017-06-11T00:06:31.888Z,99.99
2017-06-11T00:07:31.872Z,99.99
2017-06-11T00:08:31.861Z,99.99
2017-06-11T00:09:31.846Z,99.99
2017-06-11T00:10:31.836Z,99.99
2017-06-11T00:11:31.821Z,99.99
2017-06-11T00:12:31.507Z,99.99
2017-06-11T00:13:31.801Z,99.99
2017-06-11T00:14:31.781Z,99.99
2017-06-11T00:15:31.770Z,99.99
2017-06-11T00:16:31.760Z,99.99
2017-06-11T00:17:31.747Z,99.99
2017-06-11T00:18:31.731Z,99.99
2017-06-11T00:19:31.720Z,99.99
2017-06-11T00:20:31.712Z,99.99
2017-06-11T00:21:31.694Z,99.99
2017-06-11T00:22:31.679Z,99.99
2017-06-11T00:23:31.673Z,99.99
2017-06-11T00:24:31.656Z,99.99
2017-06-11T00:25:31.643Z,99.99
2017-06-11T00:26:31.631Z,99.99
2017-06-11T00:27:31.615Z,99.99
2017-06-11T00:28:31.604Z,99.99
2017-06-11T00:29:31.593Z,99.99
2017-06-11T00:30:31.579Z,99.99
2017-06-11T00:31:31.263Z,99.99
2017-06-11T00:32:31.551Z,99.99
2017-06-11T00:33:31.540Z,99.99
2017-06-11T00:34:31.526Z,99.99
2017-06-11T00:35:31.513Z,99.99
2017-06-11T00:36:31.498Z,99.99
2017-06-11T00:37:31.486Z,99.99
2017-06-11T00:38:31.477Z,99.99
2017-06-11T00:39:31.466Z,99.99
2017-06-11T00:40:31.453Z,99.99
2017-06-11T00:41:31.438Z,99.99
2017-06-11T00:42:31.430Z,99.99
2017-06-11T00:43:31.416Z,99.99
2017-06-11T00:44:31.396Z,99.99
2017-06-11T00:45:31.389Z,99.99
2017-06-11T00:46:31.374Z,99.99
2017-06-11T00:47:31.358Z,99.99
2017-06-11T00:48:31.348Z,99.99
2017-06-11T00:49:31.337Z,99.99
2017-06-11T00:50:31.321Z,99.99
2017-06-11T00:51:31.009Z,99.99
2017-06-11T00:52:31.296Z,99.99
2017-06-11T00:53:31.287Z,99.99
2017-06-11T00:54:31.269Z,99.99
2017-06-11T00:55:31.260Z,99.99
2017-06-11T00:56:31.245Z,99.99
2017-06-11T00:57:31.235Z,99.99
2017-06-11T00:58:31.220Z,99.99
2017-06-11T00:59:31.205Z,99.99
2017-06-11T01:00:30.891Z,99.99
2017-06-11T01:01:31.180Z,99.99
2017-06-11T01:02:31.210Z,99.99
2017-06-11T01:03:31.157Z,99.99
2017-06-11T01:04:31.143Z,99.99
2017-06-11T01:05:31.132Z,99.99
2017-06-11T01:06:31.114Z,99.99
2017-06-11T01:07:31.110Z,99.99
2017-06-11T01:08:31.088Z,99.99
2017-06-11T01:09:31.077Z,99.99
2017-06-11T01:10:31.064Z,99.99
2017-06-11T01:11:31.050Z,99.99
2017-06-11T01:12:31.034Z,99.99
2017-06-11T01:13:31.022Z,99.99
2017-06-11T01:14:31.014Z,99.99
2017-06-11T01:15:30.998Z,99.99
2017-06-11T01:16:31.012Z,99.99
2017-06-11T01:17:30.971Z,99.99
2017-06-11T01:18:30.961Z,99.99
2017-06-11T01:19:30.944Z,99.99
2017-06-11T01:20:30.933Z,99.99
2017-06-11T01:21:30.919Z,99.99
2017-06-11T01:22:30.910Z,99.99
2017-06-11T01:23:30.892Z,99.99
2017-06-11T01:24:30.879Z,99.99
2017-06-11T01:25:30.565Z,99.99
2017-06-11T01:26:30.856Z,99.99
2017-06-11T01:27:30.839Z,99.99
2017-06-11T01:28:30.827Z,99.99
2017-06-11T01:29:30.814Z,99.99
2017-06-11T01:30:30.813Z,99.99
2017-06-11T01:31:30.786Z,99.99
2017-06-11T01:32:30.472Z,99.99
2017-06-11T01:33:30.457Z,99.99
2017-06-11T01:34:30.747Z,99.99
2017-06-11T01:35:30.732Z,99.99
2017-06-11T01:36:30.720Z,99.99
2017-06-11T01:37:30.709Z,99.99
2017-06-11T01:38:30.697Z,99.99
2017-06-11T01:39:30.683Z,99.99
2017-06-11T01:40:30.673Z,99.99
2017-06-11T01:41:30.656Z,99.99
2017-06-11T01:42:30.646Z,99.99
2017-06-11T01:43:30.635Z,99.99
2017-06-11T01:44:30.618Z,99.99
2017-06-11T01:45:30.605Z,99.99
2017-06-11T01:46:30.590Z,99.99
2017-06-11T01:47:30.577Z,99.99
2017-06-11T01:48:30.569Z,99.99
2017-06-11T01:49:30.550Z,99.99
2017-06-11T01:50:30.539Z,99.99
2017-06-11T01:51:30.528Z,99.99
2017-06-11T01:52:30.545Z,99.99
2017-06-11T01:53:30.503Z,99.99
2017-06-11T01:54:30.186Z,99.99
2017-06-11T01:55:30.476Z,99.99
2017-06-11T01:56:30.463Z,99.99
2017-06-11T01:57:30.452Z,99.99
2017-06-11T01:58:30.438Z,99.99
2017-06-11T01:59:30.425Z,99.99
2017-06-11T02:00:30.412Z,99.99
2017-06-11T02:01:30.400Z,99.99
2017-06-11T02:02:30.393Z,99.99
2017-06-11T02:03:30.376Z,99.99
2017-06-11T02:04:30.359Z,99.99
2017-06-11T02:05:30.348Z,99.99
2017-06-11T02:06:30.031Z,99.99
2017-06-11T02:07:30.324Z,99.99
2017-06-11T02:08:30.010Z,99.99
2017-06-11T02:09:29.994Z,99.99
2017-06-11T02:10:30.283Z,99.99
2017-06-11T02:11:30.269Z,99.99
2017-06-11T02:12:30.258Z,99.99
2017-06-11T02:13:30.244Z,99.99
2017-06-11T02:14:29.930Z,99.99
2017-06-11T02:15:30.217Z,99.99
2017-06-11T02:16:30.209Z,99.99
2017-06-11T02:17:30.196Z,99.99
2017-06-11T02:18:30.179Z,99.99
2017-06-11T02:19:30.169Z,99.99
2017-06-11T02:20:30.154Z,99.99
2017-06-11T02:21:30.145Z,99.99
2017-06-11T02:22:30.131Z,99.99
2017-06-11T02:23:30.120Z,99.99
2017-06-11T02:24:30.107Z,99.99
2017-06-11T02:25:30.095Z,99.99
2017-06-11T02:26:30.083Z,99.99
2017-06-11T02:27:30.068Z,99.99
2017-06-11T02:28:30.058Z,99.99
2017-06-11T02:29:30.040Z,99.99
2017-06-11T02:30:29.730Z,99.99
2017-06-11T02:31:29.718Z,99.99
2017-06-11T02:32:30.003Z,99.99
2017-06-11T02:33:30.014Z,99.99
2017-06-11T02:34:30.009Z,99.99
2017-06-11T02:35:29.968Z,99.99
2017-06-11T02:36:29.956Z,99.99
2017-06-11T02:37:29.942Z,99.99
2017-06-11T02:38:29.932Z,99.99
2017-06-11T02:39:29.916Z,99.99
2017-06-11T02:40:29.903Z,99.99
2017-06-11T02:41:29.890Z,99.99
2017-06-11T02:42:29.878Z,99.99
2017-06-11T02:43:29.868Z,99.99
2017-06-11T02:44:29.857Z,99.99
2017-06-11T02:45:29.841Z,99.99
2017-06-11T02:46:29.831Z,99.99
2017-06-11T02:47:29.817Z,99.99
2017-06-11T02:48:29.807Z,99.99
2017-06-11T02:49:29.793Z,99.99
2017-06-11T02:50:29.787Z,99.99
2017-06-11T02:51:29.767Z,99.99
2017-06-11T02:52:29.756Z,99.99
2017-06-11T02:53:29.740Z,99.99
2017-06-11T02:54:29.733Z,99.99
2017-06-11T02:55:29.716Z,99.99
2017-06-11T02:56:29.711Z,99.99
2017-06-11T02:57:29.695Z,99.99
2017-06-11T02:58:29.678Z,99.99
2017-06-11T02:59:29.670Z,99.99
2017-06-11T03:00:29.657Z,99.99
2017-06-11T03:01:29.644Z,99.99
2017-06-11T03:02:29.633Z,99.99
2017-06-11T03:03:29.620Z,99.99
2017-06-11T03:04:29.611Z,99.99
2017-06-11T03:05:29.595Z,99.99
2017-06-11T03:06:29.585Z,99.99
2017-06-11T03:07:29.570Z,99.99
2017-06-11T03:08:29.559Z,99.99
2017-06-11T03:09:29.547Z,99.99
2017-06-11T03:10:29.533Z,99.99
2017-06-11T03:11:29.522Z,99.99
2017-06-11T03:12:29.513Z,99.99
2017-06-11T03:13:29.498Z,99.99
2017-06-11T03:14:29.488Z,99.99
2017-06-11T03:15:29.476Z,99.06
2017-06-11T03:16:29.466Z,99.35
2017-06-11T03:17:29.454Z,98.87
2017-06-11T03:18:29.442Z,98.4
2017-06-11T03:19:29.433Z,98.68
2017-06-11T03:20:29.418Z,98.4
2017-06-11T03:21:29.404Z,97.74
2017-06-11T03:22:29.394Z,97.83
2017-06-11T03:23:29.387Z,97.55
2017-06-11T03:24:29.374Z,97.64
2017-06-11T03:25:29.363Z,96.69
2017-06-11T03:26:29.348Z,96.78
2017-06-11T03:27:29.338Z,96.45
2017-06-11T03:28:29.329Z,96.31
2017-06-11T03:29:29.319Z,95.93
2017-06-11T03:30:29.305Z,96.17
2017-06-11T03:31:29.292Z,95.51
2017-06-11T03:32:29.283Z,95.22
2017-06-11T03:33:28.968Z,95.22
2017-06-11T03:34:28.960Z,95.31
2017-06-11T03:35:28.949Z,94.84
2017-06-11T03:36:29.237Z,94.84
2017-06-11T03:37:29.229Z,94.56
2017-06-11T03:38:29.214Z,94.65
2017-06-11T03:39:29.206Z,94.23
2017-06-11T03:40:29.192Z,94.42
2017-06-11T03:41:29.178Z,94.42
2017-06-11T03:42:29.168Z,94.7
2017-06-11T03:43:29.159Z,94.32
2017-06-11T03:44:29.145Z,94.51
2017-06-11T03:45:29.134Z,94.51
2017-06-11T03:46:29.125Z,94.13
2017-06-11T03:47:29.114Z,94.51
2017-06-11T03:48:29.100Z,94.74
2017-06-11T03:49:29.092Z,94.6
2017-06-11T03:50:29.074Z,94.84
2017-06-11T03:51:29.065Z,94.27
2017-06-11T03:52:29.057Z,94.51
2017-06-11T03:53:29.045Z,94.13
2017-06-11T03:54:29.031Z,94.13
2017-06-11T03:55:29.023Z,93.84
2017-06-11T03:56:29.009Z,93.84
2017-06-11T03:57:28.998Z,93.65
2017-06-11T03:58:28.989Z,92.71
2017-06-11T03:59:28.980Z,92.94
2017-06-11T04:00:28.662Z,92.85
2017-06-11T04:01:28.653Z,92.85
2017-06-11T04:02:28.941Z,92.28
2017-06-11T04:03:28.927Z,92.09
2017-06-11T04:04:28.918Z,92.09
2017-06-11T04:05:28.907Z,91.89
2017-06-11T04:06:28.895Z,91.42
2017-06-11T04:07:28.885Z,91.33
2017-06-11T04:08:28.574Z,91.33
2017-06-11T04:09:28.869Z,91.52
2017-06-11T04:10:28.857Z,90.85
2017-06-11T04:11:28.843Z,91.19
2017-06-11T04:12:28.831Z,90.9
2017-06-11T04:13:28.819Z,91.19
2017-06-11T04:14:28.811Z,90.8
2017-06-11T04:15:28.801Z,90.99
2017-06-11T04:16:28.788Z,90.52
2017-06-11T04:17:28.780Z,90.05
2017-06-11T04:18:28.769Z,90.42
2017-06-11T04:19:28.756Z,89.57
2017-06-11T04:20:28.745Z,90.05
2017-06-11T04:21:28.735Z,89.76
2017-06-11T04:22:28.723Z,89.67
2017-06-11T04:23:28.718Z,89.47
2017-06-11T04:24:28.703Z,89.19
2017-06-11T04:25:28.696Z,89.57
2017-06-11T04:26:28.687Z,89.28
2017-06-11T04:27:28.672Z,89.09
2017-06-11T04:28:28.665Z,89.28
2017-06-11T04:29:28.353Z,88.62
2017-06-11T04:30:28.643Z,88.71
2017-06-11T04:31:28.631Z,88.71
2017-06-11T04:32:28.625Z,88.9
2017-06-11T04:33:28.612Z,89.19
2017-06-11T04:34:28.607Z,88.71
2017-06-11T04:35:28.595Z,89.09
2017-06-11T04:36:28.581Z,89.09
2017-06-11T04:37:28.272Z,88.9
2017-06-11T04:38:28.563Z,88.62
2017-06-11T04:39:28.553Z,89.23
2017-06-11T04:40:28.545Z,88.71
2017-06-11T04:41:28.530Z,88.37
2017-06-11T04:42:28.523Z,87.9
2017-06-11T04:43:28.514Z,88.37
2017-06-11T04:44:28.501Z,88.51
2017-06-11T04:45:28.493Z,88.04
2017-06-11T04:46:28.489Z,88.04
2017-06-11T04:47:28.476Z,88.84
2017-06-11T04:48:28.466Z,89.32
2017-06-11T04:49:28.455Z,89.41
2017-06-11T04:50:28.445Z,89.98
2017-06-11T04:51:28.442Z,89.84
2017-06-11T04:52:28.425Z,90.03
2017-06-11T04:53:28.418Z,90.12
2017-06-11T04:54:28.412Z,90.5
2017-06-11T04:55:28.400Z,91.17
2017-06-11T04:56:28.390Z,91.46
2017-06-11T04:57:28.080Z,91.94
2017-06-11T04:58:28.373Z,91.88
2017-06-11T04:59:28.367Z,91.69
2017-06-11T05:00:28.363Z,91.88
2017-06-11T05:01:28.350Z,92.46
2017-06-11T05:02:28.340Z,92.36
2017-06-11T05:03:28.331Z,92.79
2017-06-11T05:04:28.327Z,92.5
2017-06-11T05:05:28.316Z,92.98
2017-06-11T05:06:28.309Z,93.32
2017-06-11T05:07:28.296Z,92.88
2017-06-11T05:08:28.291Z,93.32
2017-06-11T05:09:28.286Z,93.32
2017-06-11T05:10:28.276Z,93.79
2017-06-11T05:11:28.270Z,93.6
2017-06-11T05:12:28.258Z,93.98
2017-06-11T05:13:28.251Z,94.37
2017-06-11T05:14:28.243Z,94.27
2017-06-11T05:15:28.239Z,94.7
2017-06-11T05:16:28.228Z,94.98
2017-06-11T05:17:28.220Z,94.56
2017-06-11T05:18:28.213Z,94.7
2017-06-11T05:19:28.209Z,94.65
2017-06-11T05:20:28.199Z,94.07
2017-06-11T05:21:28.191Z,94.51
2017-06-11T05:22:28.183Z,94.7
2017-06-11T05:23:28.181Z,94.41
2017-06-11T05:24:28.173Z,94.41
2017-06-11T05:25:28.164Z,94.74
2017-06-11T05:26:28.158Z,94.41
2017-06-11T05:27:28.153Z,94.51
2017-06-11T05:28:28.155Z,95.03
2017-06-11T05:29:28.148Z,94.89
2017-06-11T05:30:27.832Z,94.31
2017-06-11T05:31:28.127Z,94.02
2017-06-11T05:32:28.118Z,94.31
2017-06-11T05:33:28.116Z,93.93
2017-06-11T05:34:28.111Z,93.93
2017-06-11T05:35:28.106Z,93.79
2017-06-11T05:36:28.098Z,93.74
2017-06-11T05:37:28.095Z,93.74
2017-06-11T05:38:28.089Z,93.64
2017-06-11T05:39:28.083Z,94.02
2017-06-11T05:40:28.081Z,93.74
2017-06-11T05:41:28.070Z,94.07
2017-06-11T05:42:28.065Z,94.36
2017-06-11T05:43:27.757Z,94.02
2017-06-11T05:44:28.056Z,93.84
2017-06-11T05:45:28.050Z,93.93
2017-06-11T05:46:28.043Z,94.22
2017-06-11T05:47:28.036Z,94.02
2017-06-11T05:48:28.032Z,93.98
2017-06-11T05:49:28.028Z,94.41
2017-06-11T05:50:28.021Z,93.69
2017-06-11T05:51:28.013Z,93.59
2017-06-11T05:52:28.007Z,93.64
2017-06-11T05:53:28.003Z,93.07
2017-06-11T05:54:28.005Z,93.26
2017-06-11T05:55:27.999Z,92.92
2017-06-11T05:56:27.993Z,92.73
2017-06-11T05:57:27.984Z,92.63
2017-06-11T05:58:27.984Z,92.92
2017-06-11T05:59:27.979Z,92.35
2017-06-11T06:00:27.971Z,92.35
2017-06-11T06:01:27.962Z,92.92
2017-06-11T06:02:27.969Z,92.54
2017-06-11T06:03:27.955Z,92.44
2017-06-11T06:04:27.952Z,92.01
2017-06-11T06:05:27.946Z,92.4
2017-06-11T06:06:27.941Z,92.25
2017-06-11T06:07:27.932Z,92.21
2017-06-11T06:08:27.929Z,92.3
2017-06-11T06:09:27.923Z,92.35
2017-06-11T06:10:27.970Z,92.25
2017-06-11T06:11:27.913Z,91.96
2017-06-11T06:12:27.909Z,91.82
2017-06-11T06:13:27.905Z,91.34
2017-06-11T06:14:27.899Z,91.25
2017-06-11T06:15:27.893Z,91.53
2017-06-11T06:16:27.891Z,91.83
2017-06-11T06:17:27.883Z,92.11
2017-06-11T06:18:27.881Z,92.06
2017-06-11T06:19:27.877Z,92.49
2017-06-11T06:20:27.873Z,91.92
2017-06-11T06:21:27.865Z,91.63
2017-06-11T06:22:27.863Z,91.68
2017-06-11T06:23:27.862Z,92.3
2017-06-11T06:24:27.855Z,92.21
2017-06-11T06:25:27.548Z,92.16
2017-06-11T06:26:27.545Z,92.06
2017-06-11T06:27:27.839Z,92.01
2017-06-11T06:28:27.836Z,91.63
2017-06-11T06:29:27.832Z,91.72
2017-06-11T06:30:27.829Z,91.86
2017-06-11T06:31:27.824Z,91.96
2017-06-11T06:32:27.820Z,91.09
2017-06-11T06:33:27.817Z,90.81
2017-06-11T06:34:27.507Z,90.75
2017-06-11T06:35:27.806Z,90.28
2017-06-11T06:36:27.801Z,90.18
2017-06-11T06:37:27.796Z,90.08
2017-06-11T06:38:27.793Z,90.08
2017-06-11T06:39:27.791Z,89.79
2017-06-11T06:40:27.785Z,89.32
2017-06-11T06:41:27.778Z,89.22
2017-06-11T06:42:27.775Z,88.79
2017-06-11T06:43:27.773Z,88.79
2017-06-11T06:44:27.768Z,88.74
2017-06-11T06:45:27.765Z,88.26
2017-06-11T06:46:27.762Z,88.11
2017-06-11T06:47:27.457Z,87.73
2017-06-11T06:48:27.754Z,87.58
2017-06-11T06:49:27.749Z,87.1
2017-06-11T06:50:27.744Z,86.85
2017-06-11T06:51:27.744Z,86.66
2017-06-11T06:52:27.738Z,86.57
2017-06-11T06:53:27.738Z,86.09
2017-06-11T06:54:27.730Z,85.95
2017-06-11T06:55:27.724Z,85.99
2017-06-11T06:56:27.721Z,85.51
2017-06-11T06:57:27.718Z,85.71
2017-06-11T06:58:27.714Z,84.94
2017-06-11T06:59:27.743Z,84.98
2017-06-11T07:00:27.709Z,84.64
2017-06-11T07:01:27.709Z,83.78
2017-06-11T07:02:27.703Z,83.85
2017-06-11T07:03:27.702Z,83.81
2017-06-11T07:04:27.697Z,83.94
2017-06-11T07:05:27.695Z,83.94
2017-06-11T07:06:27.693Z,84.04
2017-06-11T07:07:27.385Z,84.18
2017-06-11T07:08:27.691Z,83.26
2017-06-11T07:09:27.680Z,83.2
2017-06-11T07:10:27.680Z,82.92
2017-06-11T07:11:27.672Z,83.01
2017-06-11T07:12:27.669Z,82.57
2017-06-11T07:13:27.671Z,82.76
2017-06-11T07:14:27.669Z,82.09
2017-06-11T07:15:27.662Z,81.94
2017-06-11T07:16:27.356Z,81.23
2017-06-11T07:17:27.655Z,81.15
2017-06-11T07:18:27.353Z,81.3
2017-06-11T07:19:27.650Z,81.24
2017-06-11T07:20:27.649Z,81.2
2017-06-11T07:21:27.648Z,81.1
2017-06-11T07:22:27.339Z,81.2
2017-06-11T07:23:27.641Z,81.63
2017-06-11T07:24:27.636Z,81.09
2017-06-11T07:25:27.633Z,80.75
2017-06-11T07:26:27.327Z,79.79
2017-06-11T07:27:27.626Z,80.36
2017-06-11T07:28:27.654Z,79.88
2017-06-11T07:29:27.618Z,79.53
2017-06-11T07:30:27.618Z,79.58
2017-06-11T07:31:27.311Z,79.13
2017-06-11T07:32:27.607Z,78.75
2017-06-11T07:33:27.613Z,78.46
2017-06-11T07:34:27.604Z,78.11
2017-06-11T07:35:27.605Z,77.44
2017-06-11T07:36:27.602Z,77.34
2017-06-11T07:37:27.595Z,77.34
2017-06-11T07:38:27.593Z,77.25
2017-06-11T07:39:27.594Z,76.69
2017-06-11T07:40:27.592Z,76.4
2017-06-11T07:41:27.588Z,76.73
2017-06-11T07:42:27.585Z,76.73
2017-06-11T07:43:27.584Z,76.46
2017-06-11T07:44:27.585Z,76.11
2017-06-11T07:45:27.580Z,76.11
2017-06-11T07:46:27.581Z,75.82
2017-06-11T07:47:27.575Z,75.59
2017-06-11T07:48:27.574Z,75.21
2017-06-11T07:49:27.573Z,75.49
2017-06-11T07:50:27.567Z,75.32
2017-06-11T07:51:27.567Z,75.62
2017-06-11T07:52:27.564Z,75.52
2017-06-11T07:53:27.562Z,75.17
2017-06-11T07:54:27.561Z,75.13
2017-06-11T07:55:27.556Z,75.13
2017-06-11T07:56:27.554Z,75.2
2017-06-11T07:57:27.551Z,75.35
2017-06-11T07:58:27.548Z,75.06
2017-06-11T07:59:27.247Z,75.2
2017-06-11T08:00:27.244Z,75.32
2017-06-11T08:01:27.544Z,75.48
2017-06-11T08:02:27.540Z,75
2017-06-11T08:03:27.540Z,75.37
2017-06-11T08:04:27.534Z,75.59
2017-06-11T08:05:27.533Z,74.57
2017-06-11T08:06:27.532Z,74.44
2017-06-11T08:07:27.527Z,74.02
2017-06-11T08:08:27.529Z,73.96
2017-06-11T08:09:27.526Z,74.11
2017-06-11T08:10:27.527Z,73.92
2017-06-11T08:11:27.517Z,74.05
2017-06-11T08:12:27.523Z,73.86
2017-06-11T08:13:27.513Z,74.05
2017-06-11T08:14:27.512Z,73.47
2017-06-11T08:15:27.509Z,73.74
2017-06-11T08:16:27.506Z,73.58
2017-06-11T08:17:27.506Z,72.88
2017-06-11T08:18:27.503Z,73.16
2017-06-11T08:19:27.502Z,72.91
2017-06-11T08:20:27.498Z,72.88
2017-06-11T08:21:27.495Z,72.94
2017-06-11T08:22:27.497Z,72.45
2017-06-11T08:23:27.495Z,72.88
2017-06-11T08:24:27.492Z,72.39
2017-06-11T08:25:27.488Z,72.32
2017-06-11T08:26:27.488Z,72.58
2017-06-11T08:27:27.484Z,72.9
2017-06-11T08:28:27.484Z,72.65
2017-06-11T08:29:27.482Z,72.23
2017-06-11T08:30:27.482Z,72.58
2017-06-11T08:31:27.478Z,72.58
2017-06-11T08:32:27.483Z,72.83
2017-06-11T08:33:27.476Z,73.21
2017-06-11T08:34:27.473Z,73.35
2017-06-11T08:35:27.470Z,73.03
2017-06-11T08:36:27.167Z,72.97
2017-06-11T08:37:27.471Z,72.36
2017-06-11T08:38:27.463Z,72.11
2017-06-11T08:39:27.461Z,72.11
2017-06-11T08:40:27.459Z,72.07
2017-06-11T08:41:27.456Z,72.3
2017-06-11T08:42:27.456Z,71.62
2017-06-11T08:43:27.450Z,71.91
2017-06-11T08:44:27.448Z,71.37
2017-06-11T08:45:27.447Z,71.66
2017-06-11T08:46:27.447Z,71.56
2017-06-11T08:47:27.447Z,71.47
2017-06-11T08:48:27.446Z,71.66
2017-06-11T08:49:27.441Z,71.56
2017-06-11T08:50:27.439Z,71.11
2017-06-11T08:51:27.440Z,71.2
2017-06-11T08:52:27.438Z,71.26
2017-06-11T08:53:27.434Z,71.42
2017-06-11T08:54:27.431Z,71.46
2017-06-11T08:55:27.430Z,71.69
2017-06-11T08:56:27.431Z,71.49
2017-06-11T08:57:27.427Z,71.11
2017-06-11T08:58:27.425Z,71.43
2017-06-11T08:59:27.427Z,71.28
2017-06-11T09:00:27.421Z,71.31
2017-06-11T09:01:27.424Z,70.54
2017-06-11T09:02:27.419Z,70.83
2017-06-11T09:03:27.419Z,70.54
2017-06-11T09:04:27.415Z,70.54
2017-06-11T09:05:27.427Z,70.12
2017-06-11T09:06:27.410Z,71.01
2017-06-11T09:07:27.412Z,70.66
2017-06-11T09:08:27.409Z,70.28
2017-06-11T09:09:27.407Z,70.62
2017-06-11T09:10:27.407Z,71.14
2017-06-11T09:11:27.403Z,70.7
2017-06-11T09:12:27.403Z,70.54
2017-06-11T09:13:27.402Z,70.48
2017-06-11T09:14:27.401Z,70.28
2017-06-11T09:15:27.402Z,69.8
2017-06-11T09:16:27.403Z,70.03
2017-06-11T09:17:27.400Z,69.74
2017-06-11T09:18:27.400Z,69.39
2017-06-11T09:19:27.401Z,69.58
2017-06-11T09:20:27.396Z,69.49
2017-06-11T09:21:27.420Z,69.23
2017-06-11T09:22:27.395Z,69.23
2017-06-11T09:23:27.397Z,68.62
2017-06-11T09:24:27.393Z,69
2017-06-11T09:25:27.394Z,68.97
2017-06-11T09:26:27.393Z,68.87
2017-06-11T09:27:27.392Z,68.68
2017-06-11T09:28:27.391Z,68.52
2017-06-11T09:29:27.389Z,68.52
2017-06-11T09:30:27.388Z,68.23
2017-06-11T09:31:27.391Z,67.78
2017-06-11T09:32:27.390Z,68.17
2017-06-11T09:33:27.391Z,67.43
2017-06-11T09:34:27.387Z,67.62
2017-06-11T09:35:27.387Z,67.24
2017-06-11T09:36:27.392Z,67.3
2017-06-11T09:37:27.384Z,67.11
2017-06-11T09:38:27.387Z,67.24
2017-06-11T09:39:27.386Z,66.94
2017-06-11T09:40:27.387Z,66.94
2017-06-11T09:41:27.385Z,66.78
2017-06-11T09:42:27.083Z,66.94
2017-06-11T09:43:27.082Z,67.04
2017-06-11T09:44:27.383Z,67.01
2017-06-11T09:45:27.384Z,66.69
2017-06-11T09:46:27.382Z,67.23
2017-06-11T09:47:27.385Z,67.1
2017-06-11T09:48:27.380Z,67.55
2017-06-11T09:49:27.377Z,67.16
2017-06-11T09:50:27.377Z,67.26
2017-06-11T09:51:27.377Z,67.46
2017-06-11T09:52:27.382Z,67.55
2017-06-11T09:53:27.378Z,67.84
2017-06-11T09:54:27.380Z,67.61
2017-06-11T09:55:27.373Z,68
2017-06-11T09:56:27.372Z,68.29
2017-06-11T09:57:27.374Z,68.48
2017-06-11T09:58:27.371Z,68.87
2017-06-11T09:59:27.368Z,68.77
2017-06-11T10:00:27.364Z,68.96
2017-06-11T10:01:27.364Z,69.12
2017-06-11T10:02:27.361Z,69.41
2017-06-11T10:03:27.366Z,69.35
2017-06-11T10:04:27.360Z,69.6
2017-06-11T10:05:27.358Z,69.93
2017-06-11T10:06:27.358Z,70.12
2017-06-11T10:07:27.357Z,70.28
2017-06-11T10:08:27.353Z,70.09
2017-06-11T10:09:27.361Z,70.3
2017-06-11T10:10:27.351Z,70.78
2017-06-11T10:11:27.352Z,71.2
2017-06-11T10:12:27.353Z,71.3
2017-06-11T10:13:27.347Z,71.11
2017-06-11T10:14:27.049Z,71.72
2017-06-11T10:15:27.342Z,71.43
2017-06-11T10:16:27.343Z,71.2
2017-06-11T10:17:27.340Z,71.78
2017-06-11T10:18:27.337Z,71.78
2017-06-11T10:19:27.338Z,71.81
2017-06-11T10:20:27.336Z,72.3
2017-06-11T10:21:27.353Z,72.14
2017-06-11T10:22:27.331Z,71.95
2017-06-11T10:23:27.329Z,72.05
2017-06-11T10:24:27.330Z,72.14
2017-06-11T10:25:27.325Z,72.18
2017-06-11T10:26:27.347Z,71.98
2017-06-11T10:27:27.322Z,72.08
2017-06-11T10:28:27.322Z,72.18
2017-06-11T10:29:27.318Z,72.47
2017-06-11T10:30:27.317Z,72.18
2017-06-11T10:31:27.317Z,72.14
2017-06-11T10:32:27.318Z,72.33
2017-06-11T10:33:27.314Z,72.18
2017-06-11T10:34:27.311Z,72.18
2017-06-11T10:35:27.031Z,71.98
2017-06-11T10:36:27.308Z,72.27
2017-06-11T10:37:27.313Z,71.95
2017-06-11T10:38:27.305Z,72.08
2017-06-11T10:39:27.303Z,72.08
2017-06-11T10:40:27.303Z,72.37
2017-06-11T10:41:27.299Z,72.37
2017-06-11T10:42:27.304Z,72.37
2017-06-11T10:43:27.296Z,71.73
2017-06-11T10:44:26.996Z,71.98
2017-06-11T10:45:27.297Z,72.14
2017-06-11T10:46:27.295Z,72.05
2017-06-11T10:47:27.295Z,72.37
2017-06-11T10:48:27.294Z,72.18
2017-06-11T10:49:27.292Z,72.47
2017-06-11T10:50:27.297Z,71.79
2017-06-11T10:51:27.288Z,71.66
2017-06-11T10:52:27.293Z,71.6
2017-06-11T10:53:27.284Z,71.85
2017-06-11T10:54:27.286Z,72.33
2017-06-11T10:55:27.285Z,72.14
2017-06-11T10:56:27.286Z,72.24
2017-06-11T10:57:27.279Z,72.05
2017-06-11T10:58:27.283Z,72.08
2017-06-11T10:59:27.280Z,72.37
2017-06-11T11:00:27.279Z,71.86
2017-06-11T11:01:27.279Z,72.06
2017-06-11T11:02:27.277Z,71.92
2017-06-11T11:03:26.972Z,71.38
2017-06-11T11:04:26.970Z,71.77
2017-06-11T11:05:27.274Z,71.64
2017-06-11T11:06:27.271Z,71.5
2017-06-11T11:07:26.968Z,71.31
2017-06-11T11:08:27.268Z,70.41
2017-06-11T11:09:27.268Z,70.89
2017-06-11T11:10:27.266Z,71.04
2017-06-11T11:11:27.263Z,70.95
2017-06-11T11:12:27.264Z,70.66
2017-06-11T11:13:27.258Z,71.04
2017-06-11T11:14:26.963Z,70.56
2017-06-11T11:15:26.953Z,70.82
2017-06-11T11:16:27.255Z,71.24
2017-06-11T11:17:27.253Z,71.53
2017-06-11T11:18:27.254Z,71.34
2017-06-11T11:19:27.250Z,71.37
2017-06-11T11:20:27.250Z,71.18
2017-06-11T11:21:27.249Z,71.6
2017-06-11T11:22:27.252Z,71.31
2017-06-11T11:23:27.243Z,71.41
2017-06-11T11:24:27.248Z,71.08
2017-06-11T11:25:27.240Z,71.66
2017-06-11T11:26:27.237Z,71.7
2017-06-11T11:27:27.237Z,71.5
2017-06-11T11:28:27.237Z,71.64
2017-06-11T11:29:27.236Z,71.25
2017-06-11T11:30:27.241Z,71.54
2017-06-11T11:31:27.234Z,71.5
2017-06-11T11:32:27.233Z,71.41
2017-06-11T11:33:27.228Z,71.7
2017-06-11T11:34:27.231Z,71.85
2017-06-11T11:35:27.231Z,72.14
2017-06-11T11:36:27.228Z,72.05
2017-06-11T11:37:27.224Z,71.85
2017-06-11T11:38:27.223Z,72.72
2017-06-11T11:39:27.227Z,72.63
2017-06-11T11:40:27.224Z,72.53
2017-06-11T11:41:27.219Z,73.01
2017-06-11T11:42:27.221Z,72.81
2017-06-11T11:43:27.216Z,72.68
2017-06-11T11:44:27.218Z,72.97
2017-06-11T11:45:27.216Z,72.78
2017-06-11T11:46:27.212Z,73.2
2017-06-11T11:47:27.212Z,73.07
2017-06-11T11:48:27.208Z,73.39
2017-06-11T11:49:27.208Z,73.01
2017-06-11T11:50:27.213Z,73.97
2017-06-11T11:51:27.204Z,72.72
2017-06-11T11:52:27.205Z,73.1
2017-06-11T11:53:27.203Z,73.2
2017-06-11T11:54:26.902Z,73.51
2017-06-11T11:55:27.200Z,73.42
2017-06-11T11:56:27.195Z,73.47
2017-06-11T11:57:27.196Z,73.47
2017-06-11T11:58:27.192Z,73.9
2017-06-11T11:59:27.200Z,73.84
2017-06-11T12:00:27.190Z,73.91
2017-06-11T12:01:26.887Z,73.62
2017-06-11T12:02:27.188Z,73.57
2017-06-11T12:03:27.186Z,72.92
2017-06-11T12:04:27.186Z,73.02
2017-06-11T12:05:27.185Z,72.85
2017-06-11T12:06:26.880Z,73.27
2017-06-11T12:07:26.879Z,72.83
2017-06-11T12:08:27.180Z,73.15
2017-06-11T12:09:27.181Z,72.71
2017-06-11T12:10:27.177Z,72.64
2017-06-11T12:11:26.877Z,72.55
2017-06-11T12:12:27.199Z,72.32
2017-06-11T12:13:27.190Z,72.55
2017-06-11T12:14:27.190Z,72.1
2017-06-11T12:15:27.188Z,71.75
2017-06-11T12:16:27.176Z,71.84
2017-06-11T12:17:27.174Z,71.88
2017-06-11T12:18:27.193Z,71.26
2017-06-11T12:19:27.172Z,71.8
2017-06-11T12:20:27.174Z,71.54
2017-06-11T12:21:27.182Z,71.79
2017-06-11T12:22:27.172Z,72.01
2017-06-11T12:23:27.173Z,72.17
2017-06-11T12:24:27.176Z,72.37
2017-06-11T12:25:27.167Z,72.44
2017-06-11T12:26:27.168Z,72.09
2017-06-11T12:27:27.164Z,71.94
2017-06-11T12:28:27.167Z,71.84
2017-06-11T12:29:27.166Z,71.58
2017-06-11T12:30:27.183Z,71.14
2017-06-11T12:31:27.165Z,70.65
2017-06-11T12:32:27.174Z,70.72
2017-06-11T12:33:27.175Z,70.39
2017-06-11T12:34:27.163Z,70.26
2017-06-11T12:35:27.166Z,69.87
2017-06-11T12:36:27.161Z,69.74
2017-06-11T12:37:27.176Z,69.51
2017-06-11T12:38:27.182Z,69.38
2017-06-11T12:39:27.181Z,69.45
2017-06-11T12:40:27.162Z,69.35
2017-06-11T12:41:27.160Z,69.45
2017-06-11T12:42:27.158Z,68.99
2017-06-11T12:43:27.172Z,68.71
2017-06-11T12:44:27.158Z,68.45
2017-06-11T12:45:27.154Z,68.65
2017-06-11T12:46:27.154Z,68.13
2017-06-11T12:47:27.172Z,68.48
2017-06-11T12:48:27.154Z,68.48
2017-06-11T12:49:27.154Z,67.65
2017-06-11T12:50:27.172Z,67.84
2017-06-11T12:51:27.171Z,67.74
2017-06-11T12:52:27.165Z,67.36
2017-06-11T12:53:27.164Z,67.58
2017-06-11T12:54:26.850Z,67.68